Time;durP1;ratioP1;P1;durP2;ratioP2;P2;SDS_P1;SDS_P2;PMS_P1;PMS_P2;Temp;Humidity;BMP_temperature;BMP_pressure;BME280_temperature;BME280_humidity;BME280_pressure;Samples;Min_cycle;Max_cycle;Signal;HPM_P1;HPM_P2
2022/04/04 00:00:56;;;;;;;12.73;4.35;;;2.00;99.90;;;;;;5117295;27;20096;-72
2022/04/04 00:03:22;;;;;;;16.65;4.70;;;2.00;99.90;;;;;;5135521;27;20049;-72
2022/04/04 00:05:48;;;;;;;14.82;4.15;;;2.00;99.90;;;;;;5123112;27;20047;-73
2022/04/04 00:08:14;;;;;;;14.45;4.35;;;1.90;99.90;;;;;;5152118;27;20054;-72
2022/04/04 00:10:40;;;;;;;16.60;4.28;;;1.90;99.90;;;;;;5171419;27;20105;-74
2022/04/04 00:13:06;;;;;;;14.30;4.40;;;1.90;99.90;;;;;;5174051;27;20050;-72
2022/04/04 00:15:32;;;;;;;18.27;4.82;;;2.00;99.90;;;;;;5155717;27;20039;-73
2022/04/04 00:18:08;;;;;;;14.52;4.43;;;1.90;99.90;;;;;;5163397;27;20064;-73
2022/04/04 00:20:34;;;;;;;13.10;4.07;;;1.90;99.90;;;;;;5130750;27;20126;-70
2022/04/04 00:23:00;;;;;;;11.88;4.20;;;1.90;99.90;;;;;;5156764;27;20287;-73
2022/04/04 00:25:26;;;;;;;13.90;4.50;;;1.80;99.90;;;;;;5114714;28;20103;-72
2022/04/04 00:27:51;;;;;;;16.15;4.65;;;1.80;99.90;;;;;;5133986;28;20043;-74
2022/04/04 00:30:17;;;;;;;13.27;4.32;;;1.80;99.90;;;;;;5113446;28;20134;-73
2022/04/04 00:32:43;;;;;;;13.98;4.30;;;1.90;99.90;;;;;;5095808;28;20051;-74
2022/04/04 00:35:09;;;;;;;12.80;4.30;;;1.90;99.90;;;;;;5148360;27;20496;-72
2022/04/04 00:37:37;;;;;;;15.20;4.65;;;1.80;99.90;;;;;;5151886;27;20043;-72
2022/04/04 00:40:07;;;;;;;15.68;4.30;;;1.80;99.90;;;;;;5131079;27;20057;-72
2022/04/04 00:42:33;;;;;;;15.90;4.90;;;1.80;99.90;;;;;;5133802;27;20046;-72
2022/04/04 00:45:00;;;;;;;20.20;5.15;;;1.90;99.90;;;;;;5150968;27;20119;-72
2022/04/04 00:47:25;;;;;;;17.60;5.13;;;1.90;99.90;;;;;;5116722;27;20055;-73
2022/04/04 00:49:51;;;;;;;18.10;5.35;;;1.90;99.90;;;;;;5154178;27;20107;-72
2022/04/04 00:52:17;;;;;;;20.23;5.20;;;2.00;99.90;;;;;;5155534;27;20117;-73
2022/04/04 00:54:45;;;;;;;17.55;5.70;;;2.10;99.90;;;;;;5153539;27;20134;-73
2022/04/04 00:57:10;;;;;;;18.20;5.93;;;2.20;99.90;;;;;;5133327;27;20122;-73
2022/04/04 00:59:37;;;;;;;14.73;6.07;;;2.30;99.90;;;;;;5139689;27;20126;-73
2022/04/04 01:02:04;;;;;;;19.30;6.33;;;2.40;99.90;;;;;;5135858;27;20101;-72
2022/04/04 01:04:30;;;;;;;13.07;4.47;;;2.40;99.90;;;;;;5119443;27;20364;-73
2022/04/04 01:06:55;;;;;;;18.13;6.03;;;2.50;99.90;;;;;;5154657;27;20103;-73
2022/04/04 01:09:21;;;;;;;22.48;6.55;;;2.50;99.90;;;;;;5153456;27;20122;-71
2022/04/04 01:12:09;;;;;;;18.67;6.60;;;2.50;99.90;;;;;;5154807;27;20133;-74
2022/04/04 01:14:39;;;;;;;17.38;6.75;;;2.60;99.90;;;;;;5135948;27;20050;-73
2022/04/04 01:17:07;;;;;;;20.67;7.43;;;2.60;99.90;;;;;;5136196;27;20046;-73
2022/04/04 01:19:33;;;;;;;;;;;2.70;99.90;;;;;;5119546;27;20049;-72
2022/04/04 01:21:59;;;;;;;21.40;7.72;;;2.60;99.90;;;;;;5136352;27;20009;-72
2022/04/04 01:24:25;;;;;;;24.48;8.93;;;2.70;99.90;;;;;;5134213;27;20054;-72
2022/04/04 01:26:52;;;;;;;20.40;7.63;;;2.70;99.90;;;;;;5085250;27;20068;-73
2022/04/04 01:29:20;;;;;;;26.55;8.75;;;2.70;99.90;;;;;;5135075;27;20046;-73
2022/04/04 01:31:47;;;;;;;21.25;8.57;;;2.80;99.90;;;;;;5136463;27;20042;-72
2022/04/04 01:34:13;;;;;;;23.67;9.75;;;2.80;99.90;;;;;;5135231;27;20046;-72
2022/04/04 01:36:39;;;;;;;24.40;10.10;;;2.90;99.90;;;;;;5136239;27;20050;-72
2022/04/04 01:39:05;;;;;;;22.77;9.80;;;2.90;99.90;;;;;;5133831;27;20046;-71
2022/04/04 01:41:31;;;;;;;25.58;11.90;;;2.90;99.90;;;;;;5154785;27;20045;-73
2022/04/04 01:43:57;;;;;;;26.88;11.02;;;2.90;99.90;;;;;;5153555;27;20122;-72
2022/04/04 01:46:26;;;;;;;27.38;11.40;;;2.90;99.90;;;;;;5154839;27;20054;-74
2022/04/04 01:48:58;;;;;;;27.80;11.38;;;2.90;99.90;;;;;;5136248;27;20042;-75
2022/04/04 01:51:24;;;;;;;25.02;11.55;;;2.90;99.90;;;;;;5120141;27;20035;-73
2022/04/04 01:53:51;;;;;;;27.85;12.98;;;3.00;99.90;;;;;;5135455;27;20046;-74
2022/04/04 01:56:17;;;;;;;26.27;10.60;;;3.00;99.90;;;;;;5134153;27;20046;-73
2022/04/04 01:58:43;;;;;;;25.57;11.10;;;3.00;99.90;;;;;;5114796;27;20042;-72
2022/04/04 02:01:13;;;;;;;20.35;8.88;;;2.90;99.90;;;;;;5132428;27;20047;-74
2022/04/04 02:03:40;;;;;;;30.10;9.90;;;3.00;99.90;;;;;;5133897;27;20127;-72
2022/04/04 02:06:06;;;;;;;27.17;10.32;;;3.00;99.90;;;;;;5114200;27;20057;-74
2022/04/04 02:08:32;;;;;;;26.02;9.80;;;2.90;99.90;;;;;;5133379;27;20031;-73
2022/04/04 02:10:59;;;;;;;23.25;9.60;;;2.90;99.90;;;;;;5117068;27;20038;-73
2022/04/04 02:13:25;;;;;;;32.38;11.48;;;3.10;99.90;;;;;;5135468;27;20051;-73
2022/04/04 02:15:52;;;;;;;26.75;10.68;;;2.90;99.90;;;;;;5134813;27;20078;-74
2022/04/04 02:18:19;;;;;;;29.98;11.70;;;2.90;99.90;;;;;;5152551;27;20059;-73
2022/04/04 02:20:46;;;;;;;23.98;9.50;;;3.00;99.90;;;;;;5128021;27;20078;-72
2022/04/04 02:23:12;;;;;;;25.55;10.75;;;2.90;99.90;;;;;;5124569;27;20676;-72
2022/04/04 02:25:38;;;;;;;31.30;11.38;;;3.00;99.90;;;;;;5116404;27;20042;-73
2022/04/04 02:28:04;;;;;;;26.80;10.88;;;3.00;99.90;;;;;;5117444;27;20042;-73
2022/04/04 02:30:30;;;;;;;27.92;9.90;;;3.10;99.90;;;;;;5134619;27;20054;-72
2022/04/04 02:32:55;;;;;;;39.22;13.80;;;3.20;99.90;;;;;;5153045;27;20082;-73
2022/04/04 02:35:21;;;;;;;28.95;10.57;;;3.30;99.90;;;;;;5134256;27;20046;-72
2022/04/04 02:37:47;;;;;;;27.05;9.05;;;3.30;99.90;;;;;;5117815;27;20041;-71
2022/04/04 02:40:13;;;;;;;36.95;12.18;;;3.40;99.90;;;;;;5150705;27;20205;-72
2022/04/04 02:42:40;;;;;;;35.30;12.52;;;3.40;99.90;;;;;;5153528;27;20054;-73
2022/04/04 02:45:06;;;;;;;30.77;11.98;;;3.40;99.90;;;;;;5099905;27;20082;-71
2022/04/04 02:47:33;;;;;;;33.83;14.53;;;3.40;99.90;;;;;;5153294;27;20047;-73
2022/04/04 02:50:02;;;;;;;38.08;14.82;;;3.50;99.90;;;;;;5152350;27;20363;-73
2022/04/04 02:52:28;;;;;;;30.85;11.82;;;3.60;99.90;;;;;;5153086;27;20121;-71
2022/04/04 02:54:54;;;;;;;32.45;13.18;;;3.50;99.90;;;;;;5151187;27;20117;-72
2022/04/04 02:57:19;;;;;;;41.63;12.98;;;3.60;99.90;;;;;;5148203;27;20149;-73
2022/04/04 02:59:45;;;;;;;34.20;11.65;;;3.60;99.90;;;;;;5113476;27;20107;-72
2022/04/04 03:02:11;;;;;;;37.30;13.00;;;3.60;99.90;;;;;;5131223;27;20043;-71
2022/04/04 03:04:40;;;;;;;31.60;11.48;;;3.70;99.90;;;;;;5096786;27;20436;-72
2022/04/04 03:07:07;;;;;;;31.40;11.90;;;3.80;99.90;;;;;;5096337;27;20134;-71
2022/04/04 03:09:33;;;;;;;;;;;3.70;99.90;;;;;;5120766;27;20047;-71
2022/04/04 03:11:58;;;;;;;32.45;12.60;;;3.80;99.90;;;;;;5130919;27;19987;-72
2022/04/04 03:14:24;;;;;;;34.80;12.75;;;3.80;99.90;;;;;;5131521;27;20051;-73
2022/04/04 03:16:50;;;;;;;32.55;12.32;;;3.80;99.90;;;;;;5096552;27;20055;-71
2022/04/04 03:19:16;;;;;;;33.35;12.77;;;3.80;99.90;;;;;;5112651;27;20131;-72
2022/04/04 03:21:42;;;;;;;35.38;10.63;;;3.90;99.90;;;;;;5113668;27;20126;-73
2022/04/04 03:24:08;;;;;;;43.75;14.80;;;4.00;99.90;;;;;;5139363;27;20034;-74
2022/04/04 03:26:34;;;;;;;35.80;12.75;;;3.90;99.90;;;;;;5117627;27;20121;-73
2022/04/04 03:29:01;;;;;;;34.42;12.75;;;4.00;99.90;;;;;;5121499;27;20054;-75
2022/04/04 03:31:27;;;;;;;33.28;12.50;;;4.00;99.90;;;;;;5113976;27;20118;-72
2022/04/04 03:33:52;;;;;;;34.95;14.07;;;4.10;99.90;;;;;;5116803;27;20471;-74
2022/04/04 03:36:20;;;;;;;33.63;12.73;;;4.10;99.90;;;;;;5133317;27;20387;-72
2022/04/04 03:38:45;;;;;;;29.40;11.27;;;4.20;99.90;;;;;;5152621;27;20079;-73
2022/04/04 03:41:11;;;;;;;33.15;14.98;;;4.20;99.90;;;;;;5114615;27;20043;-73
2022/04/04 03:43:37;;;;;;;42.13;13.38;;;4.30;99.90;;;;;;5152257;27;20150;-74
2022/04/04 03:46:03;;;;;;;32.90;13.50;;;4.30;99.90;;;;;;5151209;27;20050;-72
2022/04/04 03:48:28;;;;;;;36.15;13.10;;;4.20;99.90;;;;;;5133926;27;20047;-71
2022/04/04 03:50:54;;;;;;;31.70;13.73;;;4.30;99.90;;;;;;5116858;27;20489;-71
2022/04/04 03:53:21;;;;;;;30.50;13.00;;;4.30;99.90;;;;;;5132938;27;20343;-72
2022/04/04 03:55:48;;;;;;;39.25;15.00;;;4.30;99.90;;;;;;5132628;27;20043;-72
2022/04/04 03:58:14;;;;;;;34.97;10.48;;;4.30;99.90;;;;;;5139458;27;20054;-73
2022/04/04 04:00:41;;;;;;;31.15;12.77;;;4.40;99.90;;;;;;5096107;28;20051;-72
2022/04/04 04:03:08;;;;;;;35.63;14.63;;;4.40;99.90;;;;;;5120978;27;20050;-73
2022/04/04 04:05:34;;;;;;;;;;;4.40;99.90;;;;;;5134558;27;20047;-73
2022/04/04 04:08:01;;;;;;;33.97;13.17;;;4.40;99.90;;;;;;5133031;27;20335;-74
2022/04/04 04:10:27;;;;;;;38.50;13.75;;;4.40;99.90;;;;;;5132349;27;20746;-74
2022/04/04 04:12:53;;;;;;;26.73;11.93;;;4.40;99.90;;;;;;5152005;27;20050;-73
2022/04/04 04:15:23;;;;;;;33.95;13.23;;;4.40;99.90;;;;;;5151386;27;20063;-72
2022/04/04 04:17:52;;;;;;;38.35;13.35;;;4.40;99.90;;;;;;5152131;27;20043;-72
2022/04/04 04:20:29;;;;;;;37.92;13.93;;;4.50;99.90;;;;;;5151169;27;20482;-73
2022/04/04 04:22:59;;;;;;;30.80;12.57;;;4.50;99.90;;;;;;5135877;27;20055;-72
2022/04/04 04:25:30;;;;;;;30.63;15.07;;;4.50;99.90;;;;;;5154687;27;20090;-72
2022/04/04 04:28:02;;;;;;;31.00;12.25;;;4.50;99.90;;;;;;5120733;27;20062;-73
2022/04/04 04:30:28;;;;;;;34.65;13.52;;;4.50;99.90;;;;;;5120456;27;20046;-72
2022/04/04 04:32:54;;;;;;;33.10;13.30;;;4.50;99.90;;;;;;5120317;27;20039;-73
2022/04/04 04:35:21;;;;;;;32.80;12.93;;;4.60;99.90;;;;;;5137058;27;20128;-71
2022/04/04 04:37:48;;;;;;;34.38;14.68;;;4.60;99.90;;;;;;5136997;27;20078;-71
2022/04/04 04:40:14;;;;;;;35.65;15.32;;;4.60;99.90;;;;;;5153705;27;20042;-71
2022/04/04 04:42:42;;;;;;;36.63;15.05;;;4.60;99.90;;;;;;5137649;27;20051;-72
2022/04/04 04:45:08;;;;;;;34.25;14.27;;;4.70;99.90;;;;;;5120008;27;20102;-73
2022/04/04 04:47:34;;;;;;;35.35;14.48;;;4.70;99.90;;;;;;5133308;27;20527;-72
2022/04/04 04:50:01;;;;;;;39.30;15.57;;;4.60;99.90;;;;;;5134881;27;20043;-71
2022/04/04 04:52:27;;;;;;;37.35;15.23;;;4.60;99.90;;;;;;5116111;27;20055;-72
2022/04/04 04:54:53;;;;;;;32.83;14.33;;;4.60;99.90;;;;;;5135074;27;20164;-72
2022/04/04 04:57:20;;;;;;;39.33;15.52;;;4.50;99.90;;;;;;5134632;27;20084;-72
2022/04/04 04:59:47;;;;;;;39.22;16.83;;;4.50;99.90;;;;;;5104782;27;20069;-73
2022/04/04 05:02:13;;;;;;;38.88;16.10;;;4.40;99.90;;;;;;5138238;27;20472;-72
2022/04/04 05:04:38;;;;;;;37.60;15.38;;;4.50;99.90;;;;;;5157026;27;20038;-72
2022/04/04 05:07:07;;;;;;;37.60;16.95;;;4.50;99.90;;;;;;5138783;27;20065;-74
2022/04/04 05:09:33;;;;;;;34.75;15.75;;;4.50;99.90;;;;;;5155229;27;20050;-72
2022/04/04 05:11:59;;;;;;;40.03;18.63;;;4.50;99.90;;;;;;5137331;27;20068;-71
2022/04/04 05:14:25;;;;;;;40.13;18.15;;;4.50;99.90;;;;;;5154843;27;20305;-72
2022/04/04 05:16:53;;;;;;;34.50;16.13;;;4.50;99.90;;;;;;5155536;27;20047;-72
2022/04/04 05:19:19;;;;;;;37.17;15.60;;;4.60;99.90;;;;;;5082078;27;20359;-72
2022/04/04 05:21:46;;;;;;;27.10;12.02;;;4.60;99.90;;;;;;5135280;27;20058;-71
2022/04/04 05:24:13;;;;;;;36.35;15.00;;;4.60;99.90;;;;;;5097232;27;20493;-72
2022/04/04 05:26:39;;;;;;;37.17;17.27;;;4.70;99.90;;;;;;5119117;27;20051;-71
2022/04/04 05:29:05;;;;;;;32.47;13.93;;;4.70;99.90;;;;;;5135799;27;20039;-74
2022/04/04 05:31:31;;;;;;;32.28;14.45;;;4.70;99.90;;;;;;5136026;27;20525;-73
2022/04/04 05:33:58;;;;;;;29.37;11.53;;;4.80;99.90;;;;;;5134462;27;20045;-73
2022/04/04 05:36:28;;;;;;;31.90;13.30;;;4.80;99.90;;;;;;5135906;27;20777;-73
2022/04/04 05:38:58;;;;;;;30.92;12.65;;;4.90;99.90;;;;;;5152378;27;20578;-73
2022/04/04 05:41:24;;;;;;;30.92;13.00;;;4.80;99.90;;;;;;5135627;27;20039;-72
2022/04/04 05:43:50;;;;;;;33.67;15.00;;;4.90;99.90;;;;;;5136176;27;20057;-74
2022/04/04 05:46:17;;;;;;;28.60;13.43;;;4.90;99.90;;;;;;5119006;27;20050;-72
2022/04/04 05:48:44;;;;;;;38.92;14.73;;;5.00;99.90;;;;;;5136515;27;20085;-74
2022/04/04 05:51:10;;;;;;;34.05;13.63;;;5.00;99.90;;;;;;5154078;27;20043;-73
2022/04/04 05:53:36;;;;;;;22.30;9.75;;;5.00;99.90;;;;;;5155094;27;20041;-74
2022/04/04 05:56:02;;;;;;;29.42;13.82;;;5.10;99.90;;;;;;5119498;27;20043;-73
2022/04/04 05:58:28;;;;;;;30.95;13.20;;;5.10;99.90;;;;;;5115211;27;20039;-73
2022/04/04 06:00:56;;;;;;;24.38;12.25;;;5.00;99.90;;;;;;5133832;27;20049;-73
2022/04/04 06:03:22;;;;;;;26.98;12.68;;;5.10;99.90;;;;;;5114900;27;20065;-72
2022/04/04 06:05:49;;;;;;;33.65;14.07;;;5.10;99.90;;;;;;5115286;27;20130;-73
2022/04/04 06:08:19;;;;;;;28.48;15.48;;;5.20;99.90;;;;;;5133391;27;20047;-74
2022/04/04 06:10:45;;;;;;;30.52;12.95;;;5.20;99.90;;;;;;5127948;27;20049;-73
2022/04/04 06:13:15;;;;;;;22.88;9.88;;;5.40;99.90;;;;;;5136229;27;20038;-74
2022/04/04 06:15:46;;;;;;;31.88;12.48;;;5.40;99.90;;;;;;5135696;27;20054;-73
2022/04/04 06:18:13;;;;;;;30.10;12.52;;;5.40;99.90;;;;;;5114144;27;20141;-74
2022/04/04 06:20:39;;;;;;;25.75;10.65;;;5.40;99.90;;;;;;5132901;27;20126;-73
2022/04/04 06:23:06;;;;;;;25.27;11.30;;;5.50;99.90;;;;;;5133367;27;20051;-75
2022/04/04 06:25:32;;;;;;;24.67;10.90;;;5.40;99.90;;;;;;5113168;27;20511;-73
2022/04/04 06:27:58;;;;;;;28.92;13.30;;;5.50;99.90;;;;;;5133179;27;20047;-73
2022/04/04 06:30:25;;;;;;;30.73;11.18;;;5.50;99.90;;;;;;5145083;27;20497;-72
2022/04/04 06:32:51;;;;;;;28.93;12.20;;;5.50;99.90;;;;;;5153813;27;20054;-72
2022/04/04 06:35:17;;;;;;;24.30;10.95;;;5.50;99.90;;;;;;5134497;27;20280;-73
2022/04/04 06:37:45;;;;;;;31.25;13.13;;;5.50;99.90;;;;;;5153779;27;20058;-73
2022/04/04 06:40:13;;;;;;;23.40;10.25;;;5.40;99.90;;;;;;5133796;27;20117;-74
2022/04/04 06:42:41;;;;;;;26.85;12.65;;;5.50;99.90;;;;;;5152991;27;20523;-73
2022/04/04 06:45:09;;;;;;;29.88;11.85;;;5.50;99.90;;;;;;5153395;27;20039;-73
2022/04/04 06:47:35;;;;;;;28.90;12.98;;;5.40;99.90;;;;;;5134548;27;20061;-73
2022/04/04 06:50:01;;;;;;;29.38;12.48;;;5.40;99.90;;;;;;5135360;27;20140;-73
2022/04/04 06:52:27;;;;;;;27.02;10.40;;;5.40;99.90;;;;;;5118067;27;20177;-72
2022/04/04 06:54:54;;;;;;;27.52;12.18;;;5.50;99.90;;;;;;5152482;27;20098;-72
2022/04/04 06:57:20;;;;;;;29.83;12.00;;;5.40;99.90;;;;;;5153172;27;20526;-73
2022/04/04 06:59:46;;;;;;;27.38;11.77;;;5.40;99.90;;;;;;5135303;27;20066;-73
2022/04/04 07:02:13;;;;;;;25.80;10.63;;;5.40;99.90;;;;;;5135174;27;20046;-73
2022/04/04 07:04:40;;;;;;;30.30;12.57;;;5.40;99.90;;;;;;5153809;27;20039;-74
2022/04/04 07:07:06;;;;;;;34.03;13.57;;;5.50;99.90;;;;;;5117708;27;20042;-73
2022/04/04 07:09:33;;;;;;;27.65;12.50;;;5.50;99.90;;;;;;5133770;27;20051;-74
2022/04/04 07:11:58;;;;;;;32.60;13.52;;;5.50;99.90;;;;;;5134803;27;20039;-72
2022/04/04 07:14:25;;;;;;;32.97;14.18;;;5.50;99.90;;;;;;5134567;27;20046;-73
2022/04/04 07:16:53;;;;;;;36.72;13.02;;;5.40;99.90;;;;;;5118127;27;20448;-73
2022/04/04 07:19:23;;;;;;;35.90;16.20;;;5.40;99.90;;;;;;5101101;27;20042;-73
2022/04/04 07:21:52;;;;;;;32.70;13.90;;;5.30;99.90;;;;;;5136067;27;20050;-72
2022/04/04 07:24:20;;;;;;;30.58;11.63;;;5.30;99.90;;;;;;5134169;27;20156;-71
2022/04/04 07:26:50;;;;;;;29.63;13.23;;;5.30;99.90;;;;;;5119206;27;20043;-72
2022/04/04 07:29:16;;;;;;;31.27;15.80;;;5.30;99.90;;;;;;5157322;27;20410;-74
2022/04/04 07:31:42;;;;;;;33.47;13.88;;;5.30;99.90;;;;;;5142575;27;20050;-72
2022/04/04 07:34:10;;;;;;;41.20;14.82;;;5.30;99.90;;;;;;5141408;27;20098;-73
2022/04/04 07:36:37;;;;;;;32.08;14.20;;;5.30;99.90;;;;;;5160899;27;20672;-73
2022/04/04 07:39:04;;;;;;;34.30;15.32;;;5.40;99.90;;;;;;5157370;27;20034;-73
2022/04/04 07:41:30;;;;;;;33.67;15.05;;;5.40;99.90;;;;;;5157029;27;20034;-72
2022/04/04 07:43:55;;;;;;;36.33;15.40;;;5.40;99.90;;;;;;5156512;27;20042;-74
2022/04/04 07:46:21;;;;;;;32.97;14.38;;;5.40;99.90;;;;;;5136561;27;20095;-71
2022/04/04 07:48:47;;;;;;;31.10;13.85;;;5.40;99.90;;;;;;5154620;27;20038;-72
2022/04/04 07:51:13;;;;;;;37.53;17.17;;;5.50;99.90;;;;;;5135374;27;20073;-71
2022/04/04 07:53:39;;;;;;;39.38;17.30;;;5.40;99.90;;;;;;5134335;27;20042;-71
2022/04/04 07:56:05;;;;;;;37.38;18.13;;;5.30;99.90;;;;;;5133146;27;20462;-71
2022/04/04 07:58:31;;;;;;;41.00;17.27;;;5.40;99.90;;;;;;5156230;27;20047;-72
2022/04/04 08:00:57;;;;;;;38.17;16.27;;;5.40;99.90;;;;;;5139865;27;20046;-71
2022/04/04 08:03:23;;;;;;;37.30;16.70;;;5.30;99.90;;;;;;5141430;27;20050;-71
2022/04/04 08:05:49;;;;;;;39.63;17.75;;;5.30;99.90;;;;;;5142489;27;20073;-72
2022/04/04 08:08:15;;;;;;;37.72;15.95;;;5.30;99.90;;;;;;5124662;27;20053;-72
2022/04/04 08:10:41;;;;;;;37.50;15.73;;;5.30;99.90;;;;;;5138853;27;20053;-71
2022/04/04 08:13:07;;;;;;;27.85;11.40;;;5.40;99.90;;;;;;5142463;27;20138;-72
2022/04/04 08:15:33;;;;;;;35.78;17.75;;;5.40;99.90;;;;;;5163041;27;20051;-73
2022/04/04 08:17:59;;;;;;;38.60;15.25;;;5.40;99.90;;;;;;5166901;27;20051;-73
2022/04/04 08:20:26;;;;;;;37.65;16.42;;;5.40;99.90;;;;;;5166824;27;20054;-71
2022/04/04 08:22:52;;;;;;;31.75;15.38;;;5.40;99.90;;;;;;5169426;27;20043;-70
2022/04/04 08:25:18;;;;;;;37.20;14.95;;;5.40;99.90;;;;;;5134008;27;20049;-70
2022/04/04 08:27:45;;;;;;;35.17;17.23;;;5.40;99.90;;;;;;5168167;27;20043;-71
2022/04/04 08:30:13;;;;;;;32.78;14.00;;;5.50;99.90;;;;;;5133792;27;20053;-72
2022/04/04 08:32:39;;;;;;;33.05;15.23;;;5.50;99.90;;;;;;5169066;27;20046;-72
2022/04/04 08:35:14;;;;;;;24.77;11.00;;;5.50;99.90;;;;;;5150064;27;20061;-72
2022/04/04 08:37:43;;;;;;;29.13;14.40;;;5.60;99.90;;;;;;5149868;27;20042;-70
2022/04/04 08:40:11;;;;;;;37.03;19.67;;;5.60;99.90;;;;;;5149182;27;20401;-73
2022/04/04 08:42:37;;;;;;;34.25;17.17;;;5.50;99.90;;;;;;5166870;27;20047;-72
2022/04/04 08:45:05;;;;;;;34.28;17.13;;;5.50;99.90;;;;;;5167373;27;20113;-73
2022/04/04 08:47:33;;;;;;;34.45;14.68;;;5.50;99.90;;;;;;5167919;27;20039;-71
2022/04/04 08:50:01;;;;;;;33.70;15.20;;;5.50;99.90;;;;;;5166759;27;20042;-72
2022/04/04 08:52:27;;;;;;;27.25;12.68;;;5.60;99.90;;;;;;5149143;27;20155;-75
2022/04/04 08:54:54;;;;;;;30.40;13.55;;;5.70;99.90;;;;;;5107236;27;20159;-72
2022/04/04 08:57:19;;;;;;;31.63;13.60;;;5.70;99.90;;;;;;5112035;27;20055;-72
2022/04/04 08:59:45;;;;;;;28.55;14.77;;;5.60;99.90;;;;;;5146513;27;20057;-73
2022/04/04 09:02:12;;;;;;;28.60;15.05;;;5.70;99.90;;;;;;5128830;27;20039;-73
2022/04/04 09:04:38;;;;;;;23.00;11.27;;;5.70;99.90;;;;;;5151065;27;20038;-72
2022/04/04 09:07:09;;;;;;;20.60;10.18;;;5.70;99.90;;;;;;5146849;27;20295;-70
2022/04/04 09:09:44;;;;;;;32.13;13.48;;;5.80;99.90;;;;;;5166182;27;20046;-72
2022/04/04 09:12:19;;;;;;;28.63;10.88;;;5.70;99.90;;;;;;5130804;27;20046;-73
2022/04/04 09:14:49;;;;;;;19.50;8.10;;;5.70;99.90;;;;;;5128541;27;20051;-73
2022/04/04 09:17:17;;;;;;;21.92;10.20;;;5.90;99.90;;;;;;5166352;27;20141;-73
2022/04/04 09:19:43;;;;;;;24.45;10.05;;;5.70;99.90;;;;;;5131811;27;20482;-74
2022/04/04 09:22:20;;;;;;;17.58;9.05;;;5.70;99.90;;;;;;5127734;27;20055;-72
2022/04/04 09:24:52;;;;;;;18.95;8.63;;;5.80;99.90;;;;;;5133765;27;20049;-73
2022/04/04 09:27:22;;;;;;;18.58;8.02;;;5.70;99.90;;;;;;5131898;27;20053;-73
2022/04/04 09:29:50;;;;;;;19.48;7.28;;;5.70;99.90;;;;;;5131410;27;20050;-73
2022/04/04 09:32:16;;;;;;;17.63;7.20;;;5.70;99.90;;;;;;5128442;27;20483;-73
2022/04/04 09:35:28;;;;;;;19.17;7.18;;;5.60;99.90;;;;;;5144254;27;20128;-71
2022/04/04 09:37:50;;;;;;;13.70;5.13;;;5.60;99.90;;;;;;5155705;27;20085;-74
2022/04/04 09:40:17;;;;;;;11.57;5.80;;;5.60;99.90;;;;;;5163237;27;20074;-72
2022/04/04 09:42:52;;;;;;;15.85;5.40;;;5.70;99.90;;;;;;5162707;27;20137;-73
2022/04/04 09:45:27;;;;;;;11.98;5.65;;;5.70;99.90;;;;;;5165605;27;20081;-71
2022/04/04 09:48:02;;;;;;;12.20;5.43;;;5.70;99.90;;;;;;5126779;27;20043;-73
2022/04/04 09:50:37;;;;;;;20.02;6.40;;;5.70;99.90;;;;;;5155186;27;20054;-73
2022/04/04 09:53:12;;;;;;;16.33;6.95;;;5.70;99.90;;;;;;5145627;27;20043;-72
2022/04/04 09:55:55;;;;;;;15.18;5.97;;;5.70;99.90;;;;;;5125426;27;20145;-73
2022/04/04 09:58:27;;;;;;;12.93;4.78;;;5.80;99.90;;;;;;5144570;27;20153;-74
2022/04/04 10:00:55;;;;;;;14.98;5.22;;;5.80;99.90;;;;;;5126375;27;20158;-74
2022/04/04 10:03:23;;;;;;;12.68;5.50;;;5.80;99.90;;;;;;5164109;27;20046;-74
2022/04/04 10:06:04;;;;;;;12.02;5.75;;;5.90;99.90;;;;;;5146200;27;20111;-74
2022/04/04 10:08:32;;;;;;;15.13;7.07;;;6.00;99.90;;;;;;5150754;27;20123;-73
2022/04/04 10:11:00;;;;;;;15.35;6.50;;;6.00;99.90;;;;;;5163814;27;20050;-73
2022/04/04 10:13:26;;;;;;;10.43;5.28;;;6.00;99.90;;;;;;5145697;27;20046;-74
2022/04/04 10:15:53;;;;;;;15.25;5.10;;;6.00;99.90;;;;;;5138688;27;20099;-73
2022/04/04 10:18:20;;;;;;;14.52;6.57;;;6.10;99.90;;;;;;5129440;27;20051;-73
2022/04/04 10:20:55;;;;;;;13.10;5.90;;;6.00;99.90;;;;;;5104008;27;20059;-73
2022/04/04 10:23:23;;;;;;;17.02;7.43;;;6.00;99.90;;;;;;5126121;27;20131;-74
2022/04/04 10:25:51;;;;;;;16.83;7.65;;;6.10;99.90;;;;;;5170230;27;20042;-73
2022/04/04 10:28:31;;;;;;;10.55;5.65;;;6.00;99.90;;;;;;5163186;27;20069;-75
2022/04/04 10:31:18;;;;;;;14.98;6.35;;;6.00;99.90;;;;;;5121521;27;20043;-74
2022/04/04 10:33:44;;;;;;;12.65;6.20;;;6.10;99.90;;;;;;5126803;27;20072;-73
2022/04/04 10:36:15;;;;;;;15.60;6.55;;;6.00;99.90;;;;;;5147226;27;20047;-73
2022/04/04 10:38:44;;;;;;;14.95;6.55;;;6.00;99.90;;;;;;5146413;27;20039;-76
2022/04/04 10:41:13;;;;;;;16.38;6.63;;;6.00;99.90;;;;;;5145656;27;20081;-73
2022/04/04 10:43:42;;;;;;;16.40;5.97;;;6.10;99.90;;;;;;5127447;27;20050;-74
2022/04/04 10:46:12;;;;;;;12.90;5.63;;;6.10;99.90;;;;;;5129917;27;20133;-73
2022/04/04 10:48:47;;;;;;;15.00;5.78;;;6.20;99.90;;;;;;5129642;27;20054;-72
2022/04/04 10:51:18;;;;;;;12.70;4.00;;;6.30;99.90;;;;;;5147597;27;20050;-73
2022/04/04 10:53:54;;;;;;;16.42;7.10;;;6.30;99.90;;;;;;5163895;27;20111;-73
2022/04/04 10:56:28;;;;;;;16.33;6.28;;;6.40;99.90;;;;;;5144950;27;20073;-72
2022/04/04 10:59:31;;;;;;;19.50;6.35;;;6.50;99.90;;;;;;5145518;27;20072;-74
2022/04/04 11:02:02;;;;;;;17.15;6.18;;;6.50;99.90;;;;;;5161781;27;20107;-75
2022/04/04 11:04:29;;;;;;;14.07;7.03;;;6.50;99.90;;;;;;5146312;27;20079;-74
2022/04/04 11:10:06;;;;;;;12.82;5.43;;;6.50;99.90;;;;;;5119986;27;20094;-77
2022/04/04 11:13:13;;;;;;;13.88;5.70;;;6.50;99.90;;;;;;5148505;27;20070;-73
2022/04/04 11:15:53;;;;;;;15.15;5.53;;;6.50;99.90;;;;;;5127793;27;20053;-75
2022/04/04 11:18:20;;;;;;;14.02;6.22;;;6.50;99.90;;;;;;5143705;27;20101;-76
2022/04/04 11:21:01;;;;;;;17.00;5.32;;;6.50;99.90;;;;;;5143916;27;20200;-75
2022/04/04 11:23:36;;;;;;;15.77;4.45;;;6.50;99.90;;;;;;5114978;27;20047;-74
2022/04/04 11:26:04;;;;;;;17.17;6.28;;;6.60;99.90;;;;;;5144051;27;20050;-74
2022/04/04 11:28:35;;;;;;;15.25;6.00;;;6.50;99.90;;;;;;5142827;27;20062;-74
2022/04/04 11:31:11;;;;;;;10.85;5.22;;;6.60;99.90;;;;;;5116422;27;20043;-72
2022/04/04 11:33:47;;;;;;;9.20;4.85;;;6.60;99.90;;;;;;5137136;27;20045;-75
2022/04/04 11:36:28;;;;;;;13.90;5.90;;;6.70;99.90;;;;;;5153758;27;20046;-74
2022/04/04 11:39:01;;;;;;;8.95;3.92;;;6.70;99.90;;;;;;5132315;28;20119;-72
2022/04/04 11:41:35;;;;;;;9.98;3.88;;;6.70;99.90;;;;;;5152614;28;20114;-71
2022/04/04 11:44:32;;;;;;;10.43;4.13;;;6.70;99.90;;;;;;5151374;27;20047;-73
2022/04/04 11:47:07;;;;;;;9.35;4.20;;;6.80;99.90;;;;;;5138274;27;20041;-73
2022/04/04 11:49:37;;;;;;;9.05;3.95;;;6.70;99.90;;;;;;5095262;28;20065;-73
2022/04/04 11:52:15;;;;;;;10.23;3.65;;;6.80;99.90;;;;;;5126125;28;20392;-73
2022/04/04 11:54:45;;;;;;;10.40;4.05;;;6.80;99.90;;;;;;5124669;28;20491;-72
2022/04/04 11:57:14;;;;;;;7.35;3.08;;;6.80;99.90;;;;;;5161027;27;20046;-73
2022/04/04 11:59:43;;;;;;;11.23;3.50;;;6.80;99.90;;;;;;5109919;27;20074;-74
2022/04/04 12:02:11;;;;;;;8.90;4.07;;;6.90;99.90;;;;;;5125341;27;20319;-74
2022/04/04 12:04:39;;;;;;;9.48;4.22;;;6.80;99.90;;;;;;5141891;27;20046;-74
2022/04/04 12:07:05;;;;;;;10.13;3.17;;;6.80;99.90;;;;;;5123849;27;20138;-73
2022/04/04 12:09:35;;;;;;;8.02;2.95;;;7.00;99.90;;;;;;5123957;27;20138;-74
2022/04/04 12:12:09;;;;;;;5.90;2.72;;;7.00;99.90;;;;;;5139783;27;20050;-73
2022/04/04 12:14:42;;;;;;;7.57;3.58;;;7.00;99.90;;;;;;5156136;27;20054;-75
2022/04/04 12:17:13;;;;;;;11.63;3.25;;;7.00;99.90;;;;;;5135338;27;20069;-74
2022/04/04 12:19:47;;;;;;;10.52;3.53;;;7.00;99.90;;;;;;5120168;27;20106;-73
2022/04/04 12:25:03;;;;;;;9.63;3.05;;;7.00;99.90;;;;;;5158330;27;20118;-73
2022/04/04 12:27:28;;;;;;;5.78;2.35;;;7.10;99.90;;;;;;5124414;27;20078;-73
2022/04/04 12:30:03;;;;;;;8.82;3.42;;;7.10;99.90;;;;;;5124245;27;20398;-73
2022/04/04 12:32:36;;;;;;;8.80;3.10;;;7.10;99.90;;;;;;5139790;27;20133;-74
2022/04/04 12:35:06;;;;;;;7.20;3.08;;;7.10;99.90;;;;;;5139347;27;20133;-73
2022/04/04 12:37:44;;;;;;;9.02;3.55;;;7.20;99.90;;;;;;5124900;27;20078;-74
2022/04/04 12:40:21;;;;;;;8.40;3.28;;;7.10;99.90;;;;;;5139522;27;20043;-75
2022/04/04 12:42:52;;;;;;;6.55;3.42;;;7.20;99.90;;;;;;5135463;27;20131;-77
2022/04/04 12:45:20;;;;;;;7.05;2.75;;;7.20;99.90;;;;;;5110132;27;20073;-73
2022/04/04 12:48:21;;;;;;;5.75;2.92;;;7.20;99.90;;;;;;5117699;27;20051;-74
2022/04/04 12:50:48;;;;;;;5.70;2.63;;;7.20;99.90;;;;;;5083196;27;20086;-73
2022/04/04 12:53:16;;;;;;;7.38;3.60;;;7.20;99.90;;;;;;5137090;27;20043;-74
2022/04/04 12:55:45;;;;;;;;;;;7.20;99.90;;;;;;5119621;27;20046;-73